This is the latest recevied weather packets stored in our database for station/object K6CQU-13. If no packets are shown the sender has not sent any weather packets the latest 10 day(s).
| Time | Temp. | Humidity | Pressure | Rain* | Wind** | Luminosity | Snow |
|---|---|---|---|---|---|---|---|
| 1788023118 | 21.67° C | 69% | 1014.7 hPa | 0 mm | - | 590 W/m² | - |
| 1788022817 | 21.67° C | 68% | 1014.6 hPa | 0 mm | - | 576 W/m² | - |
| 1788022517 | 21.67° C | 69% | 1014.6 hPa | 0 mm | - | 563 W/m² | - |
| 1788022218 | 21.11° C | 68% | 1014.6 hPa | 0 mm | - | 550 W/m² | - |
| 1788021918 | 20.56° C | 66% | 1014.5 hPa | 0 mm | - | 537 W/m² | - |
| 1788021617 | 20.56° C | 65% | 1014.5 hPa | 0 mm | - | 524 W/m² | - |
| 1788021317 | 20.56° C | 66% | 1014.4 hPa | 0 mm | - | 510 W/m² | - |
| 1788021017 | 20.56° C | 66% | 1014.5 hPa | 0 mm | - | 495 W/m² | - |
| 1788020718 | 20.56° C | 66% | 1014.5 hPa | 0 mm | - | 481 W/m² | - |
| 1788020417 | 20° C | 68% | 1014.5 hPa | 0 mm | - | 465 W/m² | - |
| 1788020117 | 20° C | 68% | 1014.5 hPa | 0 mm | - | 450 W/m² | - |
| 1788019817 | 20° C | 68% | 1014.5 hPa | 0 mm | - | 436 W/m² | - |
| 1788019518 | 19.44° C | 71% | 1014.3 hPa | 0 mm | - | 420 W/m² | - |
| 1788019217 | 19.44° C | 71% | 1014.3 hPa | 0 mm | - | 404 W/m² | - |
| 1788018917 | 19.44° C | 72% | 1014.3 hPa | 0 mm | - | 388 W/m² | - |
| 1788018618 | 18.89° C | 72% | 1014.2 hPa | 0 mm | - | 373 W/m² | - |
| 1788018317 | 18.89° C | 74% | 1014.2 hPa | 0 mm | - | 357 W/m² | - |
| 1788018018 | 18.33° C | 74% | 1014.1 hPa | 0 mm | - | 341 W/m² | - |
| 1788017718 | 18.33° C | 75% | 1014.1 hPa | 0 mm | - | 326 W/m² | - |
| 1788017417 | 18.33° C | 76% | 1014.1 hPa | 0 mm | - | 309 W/m² | - |
| 1788017117 | 18.33° C | 77% | 1014 hPa | 0 mm | - | 291 W/m² | - |
| 1788016817 | 17.78° C | 78% | 1014 hPa | 0 mm | - | 274 W/m² | - |
| 1788016517 | 17.78° C | 78% | 1014.1 hPa | 0 mm | - | 256 W/m² | - |
| 1788016217 | 17.78° C | 80% | 1014.1 hPa | 0 mm | - | 240 W/m² | - |
| 1788015917 | 17.22° C | 80% | 1014.1 hPa | 0 mm | - | 225 W/m² | - |
* Rain latest hour (hover to see other rain measurements)
** Current wind speed in m/s (hover to see current wind gust speed)